Melbourne International Airport
YMML : now visible

Airfield :











YOU CAN JOIN US ON...

 
LOGIN :

Register | Disclaimer

   EN    FR    IT 

 









Legend :    VFR   Marginal VFR   IFR   Intensive IFR   Very Intensive IFR
Visi :
Ceiling :
>= 8 km
>= 3000ft
5 to 8 km
1000 to 3000 ft
1500m to 5 km
500 to 1000 ft
800 to 1500m
200 to 500 ft
< 800m
< 200 ft
Symbols :   Thunderstorms  Fog  Heavy snow  Heavy precipitations  Wind > 20 kt






- Airport Elevation : 434 ft
- IATA code : MEL


YMML - Melbourne International

CURRENT METAR :
  • 191300Z 34008KT CAVOK 14/09 Q1011

EXPIRED METARs :
  • 191230Z 34011KT CAVOK 14/09 Q1011
  • 191200Z 36016KT CAVOK 14/09 Q1011
  • 191130Z 35014KT 9999 VCSH NSC 14/09 Q1012
  • 191100Z 34014KT CAVOK 14/09 Q1012
  • 191030Z 35010KT CAVOK 14/08 Q1012

TAF TAF YMML
Valid from the 19 at 12:00 until the 20 at 18:00 UTC


191119Z 1912/2018 33015G25KT 9999 -SHRA BKN040
FM191500 29015G25KT 9999 -SHRA SCT020 BKN030
FM191900 29014KT 9999 NSW SCT030
FM192300 27019G29KT 9999 -SHRA SCT035
FM200300 27020G35KT 9999 -SHRA SCT035
FM200700 24016G26KT 9999 -SHRA SCT025
FM201300 24014KT 9999 -SHRA SCT015 BKN020 INTER 2003/2009 27030G45KT 4000 SHRAGS BKN020 SCT030TCU
YMMM FIR / Oceania



MET'MAP, your aeronautical weather chart ! - Copyright ORBIFLY December 2007 - Disclaimer

ORBIFLY MET'MAP TEAM :

Programming & Development : Alexandra Zaïnal
Concept & original design : Baudouin d'Aumeries
Assistance for programming : Marc-Olivier Méhu
Technical & hardware support : Manuel Goepfert

Contact : metmap@orbifly.com




SOURCES & CREDITS :

   NOAA       Earth
Advisory